Celoron, NY (14720)

10:25 PM EDT on September 01, 2015 (GMT -0400)
Celoron Village | | Change Station
CLOSE
Current Station
Personal Weather Station
Location: Jamestown, NY
Elevation: 1411 ft
Nearby Weather Stations

Elev 1411 ft 42.10 °N, 79.28 °W | Updated 2 minutes ago

Clear
Clear
66.6 °F
Feels Like 66.6 °F
N
0.0
Wind Variable Wind from West

Today
High -- | Low -- °F
--% Chance of Precip.
Yesterday
High -- | Low -- °F
Precip. -- in
6:42 AM 7:51 PM
Waning Gibbous, 84% visible
Pressure 30.13 in
Visibility 7.0 miles
Clouds Clear
Dew Point 65 °F
Humidity 94%
Rainfall 0.00 in
Snow Depth Not available.
UV 0 out of 12
Pollen 10.40 out of 12
Air Quality Not available.
Flu Activity Not available.
METAR KJHW 020215Z AUTO 28003KT 7SM CLR 20/17 A3013 RMK AO1
Pressure 30.13 in
Visibility 7.0 miles
Clouds Clear
Dew Point 65 °F
Humidity 94%
Rainfall 0.00 in
Snow Depth Not available.
UV 0 out of 12
Pollen 10.40 out of 12
Air Quality Not available.
Flu Activity Not available.
METAR KJHW 020215Z AUTO 28003KT 7SM CLR 20/17 A3013 RMK AO1

10-Day Weather Forecast

×

Almanac

Astronomy

Sep. 01, 2015 Rise Set
Actual Time
Civil Twilight
Nautical Twilight
Astronomical Twilight
Moon
Length of Visible Light
Length of Day
Tomorrow will be .
, % of the Moon is Illuminated

Today's Extremes

State Highs State Lows

Community

WunderPhotos

Upload Photos

1,851,679 photos uploaded!

WunderBlogs® & News

Nearby

Air Quality

  Air Quality AQ Index Pollutant
Not available.

Snow Depth

Station Depth Elevation

Earthquake Activity

City Distance Mag. Time & Date
Minimum magnitude displayed is 2.5.

Coastal Water Temperatures

Place Temperature

Stations

Nearby Weather Stations

Station Location Temp. Windchill Dew Point Humidity Wind Precip. Elev Updated Type